sensor_id;sensor_type;location;lat;lon;timestamp;P1;durP1;ratioP1;P2;durP2;ratioP2
78664;SDS011;67981;51.022;-2.870;2023-07-16T13:42:06;4.20;;;0.90;;
78664;SDS011;67981;51.022;-2.870;2023-07-16T13:44:34;2.33;;;1.05;;
78664;SDS011;67981;51.022;-2.870;2023-07-16T13:47:00;3.05;;;1.48;;
78664;SDS011;67981;51.022;-2.870;2023-07-16T13:49:25;3.95;;;1.15;;
78664;SDS011;67981;51.022;-2.870;2023-07-16T13:51:51;3.20;;;1.00;;
78664;SDS011;67981;51.022;-2.870;2023-07-16T13:54:16;3.00;;;1.10;;
78664;SDS011;67981;51.022;-2.870;2023-07-16T13:56:41;4.00;;;1.20;;
78664;SDS011;67981;51.022;-2.870;2023-07-16T13:59:07;4.68;;;1.80;;
78664;SDS011;67981;51.022;-2.870;2023-07-16T14:01:32;2.85;;;1.15;;
78664;SDS011;67981;51.022;-2.870;2023-07-16T14:03:58;1.27;;;0.80;;
78664;SDS011;67981;51.022;-2.870;2023-07-16T14:06:23;2.58;;;1.10;;
78664;SDS011;67981;51.022;-2.870;2023-07-16T14:08:48;2.23;;;1.23;;
78664;SDS011;67981;51.022;-2.870;2023-07-16T14:11:14;2.78;;;1.10;;
78664;SDS011;67981;51.022;-2.870;2023-07-16T14:13:43;2.63;;;1.00;;
78664;SDS011;67981;51.022;-2.870;2023-07-16T14:16:08;2.95;;;1.40;;
78664;SDS011;67981;51.022;-2.870;2023-07-16T14:18:34;3.13;;;1.40;;
78664;SDS011;67981;51.022;-2.870;2023-07-16T14:20:59;1.80;;;1.37;;
78664;SDS011;67981;51.022;-2.870;2023-07-16T14:23:25;1.67;;;0.80;;
78664;SDS011;67981;51.022;-2.870;2023-07-16T14:25:51;3.37;;;1.37;;
78664;SDS011;67981;51.022;-2.870;2023-07-16T14:28:16;2.20;;;1.05;;
78664;SDS011;67981;51.022;-2.870;2023-07-16T14:30:41;3.97;;;1.53;;
78664;SDS011;67981;51.022;-2.870;2023-07-16T14:33:07;2.60;;;1.10;;
78664;SDS011;67981;51.022;-2.870;2023-07-16T14:35:33;5.63;;;1.17;;
78664;SDS011;67981;51.022;-2.870;2023-07-16T14:37:58;4.07;;;1.45;;
78664;SDS011;67981;51.022;-2.870;2023-07-16T14:40:24;2.23;;;1.10;;
78664;SDS011;67981;51.022;-2.870;2023-07-16T14:42:49;2.25;;;1.50;;
78664;SDS011;67981;51.022;-2.870;2023-07-16T14:45:15;3.17;;;1.17;;
78664;SDS011;67981;51.022;-2.870;2023-07-16T14:47:40;4.07;;;1.87;;
78664;SDS011;67981;51.022;-2.870;2023-07-16T14:50:05;2.65;;;1.23;;
78664;SDS011;67981;51.022;-2.870;2023-07-16T14:52:31;3.35;;;1.40;;
78664;SDS011;67981;51.022;-2.870;2023-07-16T14:54:56;3.95;;;1.13;;
78664;SDS011;67981;51.022;-2.870;2023-07-16T14:57:22;4.13;;;1.50;;
78664;SDS011;67981;51.022;-2.870;2023-07-16T14:59:47;3.75;;;1.52;;
78664;SDS011;67981;51.022;-2.870;2023-07-16T15:02:13;5.68;;;1.40;;
78664;SDS011;67981;51.022;-2.870;2023-07-16T15:04:38;2.47;;;1.15;;
78664;SDS011;67981;51.022;-2.870;2023-07-16T15:07:04;3.50;;;1.55;;
78664;SDS011;67981;51.022;-2.870;2023-07-16T15:09:30;3.78;;;1.60;;
78664;SDS011;67981;51.022;-2.870;2023-07-16T15:11:55;3.20;;;1.33;;
78664;SDS011;67981;51.022;-2.870;2023-07-16T15:14:21;3.33;;;1.67;;
78664;SDS011;67981;51.022;-2.870;2023-07-16T15:16:46;3.22;;;1.40;;
78664;SDS011;67981;51.022;-2.870;2023-07-16T15:19:14;2.20;;;1.25;;
78664;SDS011;67981;51.022;-2.870;2023-07-16T15:21:41;2.58;;;1.05;;
78664;SDS011;67981;51.022;-2.870;2023-07-16T15:24:07;3.90;;;1.20;;
78664;SDS011;67981;51.022;-2.870;2023-07-16T15:26:32;2.33;;;1.00;;
78664;SDS011;67981;51.022;-2.870;2023-07-16T15:28:58;6.13;;;1.67;;
78664;SDS011;67981;51.022;-2.870;2023-07-16T15:31:23;4.68;;;1.50;;
78664;SDS011;67981;51.022;-2.870;2023-07-16T15:33:56;4.80;;;1.48;;
78664;SDS011;67981;51.022;-2.870;2023-07-16T15:36:24;1.67;;;0.90;;
78664;SDS011;67981;51.022;-2.870;2023-07-16T15:38:51;2.67;;;1.25;;
78664;SDS011;67981;51.022;-2.870;2023-07-16T15:41:17;3.28;;;1.42;;
78664;SDS011;67981;51.022;-2.870;2023-07-16T15:43:50;3.13;;;1.10;;
78664;SDS011;67981;51.022;-2.870;2023-07-16T15:46:16;2.47;;;1.27;;
78664;SDS011;67981;51.022;-2.870;2023-07-16T15:48:42;3.72;;;2.15;;
78664;SDS011;67981;51.022;-2.870;2023-07-16T15:51:08;3.53;;;1.05;;
78664;SDS011;67981;51.022;-2.870;2023-07-16T15:53:34;2.83;;;1.42;;
78664;SDS011;67981;51.022;-2.870;2023-07-16T15:55:59;2.92;;;1.13;;
78664;SDS011;67981;51.022;-2.870;2023-07-16T15:58:24;3.43;;;1.20;;
78664;SDS011;67981;51.022;-2.870;2023-07-16T16:00:50;1.77;;;1.00;;
78664;SDS011;67981;51.022;-2.870;2023-07-16T16:03:15;2.75;;;0.93;;
78664;SDS011;67981;51.022;-2.870;2023-07-16T16:05:42;2.00;;;0.90;;
78664;SDS011;67981;51.022;-2.870;2023-07-16T16:08:11;2.17;;;0.88;;
78664;SDS011;67981;51.022;-2.870;2023-07-16T16:10:50;4.10;;;1.00;;
78664;SDS011;67981;51.022;-2.870;2023-07-16T16:13:17;2.28;;;1.20;;
78664;SDS011;67981;51.022;-2.870;2023-07-16T16:15:44;3.72;;;1.00;;
78664;SDS011;67981;51.022;-2.870;2023-07-16T16:18:10;2.65;;;1.48;;
78664;SDS011;67981;51.022;-2.870;2023-07-16T16:20:36;2.33;;;1.20;;
78664;SDS011;67981;51.022;-2.870;2023-07-16T16:23:03;4.00;;;1.52;;
78664;SDS011;67981;51.022;-2.870;2023-07-16T16:25:29;3.22;;;2.10;;
78664;SDS011;67981;51.022;-2.870;2023-07-16T16:27:59;2.42;;;1.27;;
78664;SDS011;67981;51.022;-2.870;2023-07-16T16:30:25;2.33;;;1.40;;
78664;SDS011;67981;51.022;-2.870;2023-07-16T16:32:51;2.90;;;1.63;;
78664;SDS011;67981;51.022;-2.870;2023-07-16T16:35:19;2.78;;;1.20;;
78664;SDS011;67981;51.022;-2.870;2023-07-16T16:37:46;2.35;;;1.35;;
78664;SDS011;67981;51.022;-2.870;2023-07-16T16:40:11;3.10;;;1.65;;
78664;SDS011;67981;51.022;-2.870;2023-07-16T16:42:40;4.63;;;1.20;;
78664;SDS011;67981;51.022;-2.870;2023-07-16T16:45:07;4.03;;;1.27;;
78664;SDS011;67981;51.022;-2.870;2023-07-16T16:47:33;4.55;;;1.85;;
78664;SDS011;67981;51.022;-2.870;2023-07-16T16:49:59;2.60;;;1.52;;
78664;SDS011;67981;51.022;-2.870;2023-07-16T16:52:25;2.13;;;1.48;;
78664;SDS011;67981;51.022;-2.870;2023-07-16T16:54:51;2.78;;;1.33;;
78664;SDS011;67981;51.022;-2.870;2023-07-16T16:57:17;5.60;;;1.48;;
78664;SDS011;67981;51.022;-2.870;2023-07-16T16:59:42;3.08;;;1.52;;
78664;SDS011;67981;51.022;-2.870;2023-07-16T17:02:08;2.40;;;1.20;;
78664;SDS011;67981;51.022;-2.870;2023-07-16T17:04:36;3.20;;;1.40;;
78664;SDS011;67981;51.022;-2.870;2023-07-16T17:07:02;4.03;;;1.05;;
78664;SDS011;67981;51.022;-2.870;2023-07-16T17:09:28;4.63;;;1.55;;
78664;SDS011;67981;51.022;-2.870;2023-07-16T17:11:54;3.15;;;1.27;;
78664;SDS011;67981;51.022;-2.870;2023-07-16T17:14:20;2.50;;;1.58;;
78664;SDS011;67981;51.022;-2.870;2023-07-16T17:16:46;3.47;;;1.40;;
78664;SDS011;67981;51.022;-2.870;2023-07-16T17:19:11;3.20;;;1.50;;
78664;SDS011;67981;51.022;-2.870;2023-07-16T17:21:37;2.47;;;1.45;;
78664;SDS011;67981;51.022;-2.870;2023-07-16T17:24:03;3.75;;;1.45;;
78664;SDS011;67981;51.022;-2.870;2023-07-16T17:26:30;2.40;;;1.23;;
78664;SDS011;67981;51.022;-2.870;2023-07-16T17:28:55;2.70;;;1.13;;
78664;SDS011;67981;51.022;-2.870;2023-07-16T17:31:21;2.70;;;1.10;;
78664;SDS011;67981;51.022;-2.870;2023-07-16T17:33:46;2.72;;;1.13;;
78664;SDS011;67981;51.022;-2.870;2023-07-16T17:36:11;4.50;;;1.42;;
78664;SDS011;67981;51.022;-2.870;2023-07-16T17:38:37;4.95;;;2.28;;
78664;SDS011;67981;51.022;-2.870;2023-07-16T17:41:03;2.78;;;1.33;;
78664;SDS011;67981;51.022;-2.870;2023-07-16T17:43:29;2.95;;;1.13;;
78664;SDS011;67981;51.022;-2.870;2023-07-16T17:45:55;5.60;;;1.60;;
78664;SDS011;67981;51.022;-2.870;2023-07-16T17:48:21;4.05;;;1.15;;
78664;SDS011;67981;51.022;-2.870;2023-07-16T17:50:49;1.73;;;0.90;;
78664;SDS011;67981;51.022;-2.870;2023-07-16T17:53:15;1.67;;;1.00;;
78664;SDS011;67981;51.022;-2.870;2023-07-16T17:55:41;2.17;;;1.25;;
78664;SDS011;67981;51.022;-2.870;2023-07-16T17:58:06;2.75;;;1.08;;
78664;SDS011;67981;51.022;-2.870;2023-07-16T18:00:31;1.90;;;1.02;;
78664;SDS011;67981;51.022;-2.870;2023-07-16T18:02:57;3.40;;;1.33;;
78664;SDS011;67981;51.022;-2.870;2023-07-16T18:05:23;2.17;;;1.17;;
78664;SDS011;67981;51.022;-2.870;2023-07-16T18:07:49;2.22;;;1.23;;
78664;SDS011;67981;51.022;-2.870;2023-07-16T18:10:17;2.88;;;1.20;;
78664;SDS011;67981;51.022;-2.870;2023-07-16T18:12:45;2.78;;;1.33;;
78664;SDS011;67981;51.022;-2.870;2023-07-16T18:15:11;2.05;;;1.00;;
78664;SDS011;67981;51.022;-2.870;2023-07-16T18:17:37;3.05;;;1.30;;
78664;SDS011;67981;51.022;-2.870;2023-07-16T18:20:02;2.42;;;1.27;;
78664;SDS011;67981;51.022;-2.870;2023-07-16T18:22:34;3.40;;;1.27;;
78664;SDS011;67981;51.022;-2.870;2023-07-16T18:24:59;2.50;;;1.30;;
78664;SDS011;67981;51.022;-2.870;2023-07-16T18:27:25;3.92;;;1.20;;
78664;SDS011;67981;51.022;-2.870;2023-07-16T18:29:50;4.28;;;1.40;;
78664;SDS011;67981;51.022;-2.870;2023-07-16T18:32:17;3.03;;;1.10;;
78664;SDS011;67981;51.022;-2.870;2023-07-16T18:34:42;2.03;;;1.13;;
78664;SDS011;67981;51.022;-2.870;2023-07-16T18:37:08;2.22;;;1.30;;
78664;SDS011;67981;51.022;-2.870;2023-07-16T18:39:33;4.65;;;1.30;;
78664;SDS011;67981;51.022;-2.870;2023-07-16T18:41:59;3.00;;;1.30;;
78664;SDS011;67981;51.022;-2.870;2023-07-16T18:44:24;5.70;;;1.50;;
78664;SDS011;67981;51.022;-2.870;2023-07-16T18:46:49;2.97;;;1.40;;
78664;SDS011;67981;51.022;-2.870;2023-07-16T18:49:15;3.38;;;1.58;;
78664;SDS011;67981;51.022;-2.870;2023-07-16T18:51:40;7.18;;;1.40;;
78664;SDS011;67981;51.022;-2.870;2023-07-16T18:54:06;3.53;;;1.15;;
78664;SDS011;67981;51.022;-2.870;2023-07-16T18:56:32;4.85;;;2.28;;
78664;SDS011;67981;51.022;-2.870;2023-07-16T18:58:59;5.95;;;1.48;;
78664;SDS011;67981;51.022;-2.870;2023-07-16T19:01:24;3.63;;;1.80;;
78664;SDS011;67981;51.022;-2.870;2023-07-16T19:03:49;6.65;;;1.27;;
78664;SDS011;67981;51.022;-2.870;2023-07-16T19:06:16;3.78;;;1.80;;
78664;SDS011;67981;51.022;-2.870;2023-07-16T19:08:41;4.75;;;1.60;;
78664;SDS011;67981;51.022;-2.870;2023-07-16T19:11:07;5.10;;;1.70;;
78664;SDS011;67981;51.022;-2.870;2023-07-16T19:13:32;2.65;;;1.38;;
78664;SDS011;67981;51.022;-2.870;2023-07-16T19:15:58;5.53;;;1.98;;
78664;SDS011;67981;51.022;-2.870;2023-07-16T19:18:23;8.63;;;1.83;;
78664;SDS011;67981;51.022;-2.870;2023-07-16T19:20:48;6.13;;;1.90;;
78664;SDS011;67981;51.022;-2.870;2023-07-16T19:23:14;6.22;;;1.77;;
78664;SDS011;67981;51.022;-2.870;2023-07-16T19:25:39;4.32;;;1.90;;
78664;SDS011;67981;51.022;-2.870;2023-07-16T19:28:05;4.07;;;1.60;;
78664;SDS011;67981;51.022;-2.870;2023-07-16T19:30:31;4.45;;;1.45;;
78664;SDS011;67981;51.022;-2.870;2023-07-16T19:32:56;7.45;;;2.35;;
78664;SDS011;67981;51.022;-2.870;2023-07-16T19:35:22;2.78;;;1.60;;
78664;SDS011;67981;51.022;-2.870;2023-07-16T19:37:47;5.07;;;1.73;;
78664;SDS011;67981;51.022;-2.870;2023-07-16T19:40:13;4.68;;;1.98;;
78664;SDS011;67981;51.022;-2.870;2023-07-16T19:42:38;3.20;;;1.60;;
78664;SDS011;67981;51.022;-2.870;2023-07-16T19:45:04;2.72;;;1.60;;
78664;SDS011;67981;51.022;-2.870;2023-07-16T19:47:31;5.03;;;1.83;;
78664;SDS011;67981;51.022;-2.870;2023-07-16T19:49:56;4.15;;;1.85;;
78664;SDS011;67981;51.022;-2.870;2023-07-16T19:52:23;4.10;;;1.83;;
78664;SDS011;67981;51.022;-2.870;2023-07-16T19:54:49;6.10;;;1.83;;
78664;SDS011;67981;51.022;-2.870;2023-07-16T19:57:14;6.38;;;1.88;;
78664;SDS011;67981;51.022;-2.870;2023-07-16T19:59:40;6.55;;;2.10;;
78664;SDS011;67981;51.022;-2.870;2023-07-16T20:02:05;3.50;;;1.73;;
78664;SDS011;67981;51.022;-2.870;2023-07-16T20:04:31;3.88;;;1.92;;
78664;SDS011;67981;51.022;-2.870;2023-07-16T20:06:56;7.97;;;2.50;;
78664;SDS011;67981;51.022;-2.870;2023-07-16T20:09:21;3.60;;;1.55;;
78664;SDS011;67981;51.022;-2.870;2023-07-16T20:11:50;5.80;;;1.90;;
78664;SDS011;67981;51.022;-2.870;2023-07-16T20:14:16;5.10;;;1.88;;
78664;SDS011;67981;51.022;-2.870;2023-07-16T20:16:41;5.78;;;2.40;;
78664;SDS011;67981;51.022;-2.870;2023-07-16T20:19:07;3.78;;;1.85;;
78664;SDS011;67981;51.022;-2.870;2023-07-16T20:21:35;4.32;;;1.90;;
78664;SDS011;67981;51.022;-2.870;2023-07-16T20:24:00;4.50;;;2.25;;
78664;SDS011;67981;51.022;-2.870;2023-07-16T20:26:28;5.45;;;1.90;;
78664;SDS011;67981;51.022;-2.870;2023-07-16T20:28:53;6.35;;;2.15;;
78664;SDS011;67981;51.022;-2.870;2023-07-16T20:31:18;3.67;;;2.00;;
78664;SDS011;67981;51.022;-2.870;2023-07-16T20:33:45;4.35;;;2.30;;
78664;SDS011;67981;51.022;-2.870;2023-07-16T20:36:10;8.20;;;2.55;;
78664;SDS011;67981;51.022;-2.870;2023-07-16T20:38:36;6.88;;;2.03;;
78664;SDS011;67981;51.022;-2.870;2023-07-16T20:41:01;5.23;;;2.60;;
78664;SDS011;67981;51.022;-2.870;2023-07-16T20:43:27;6.68;;;2.08;;
78664;SDS011;67981;51.022;-2.870;2023-07-16T20:45:53;5.95;;;2.08;;
78664;SDS011;67981;51.022;-2.870;2023-07-16T20:48:19;4.63;;;2.15;;
78664;SDS011;67981;51.022;-2.870;2023-07-16T20:50:44;9.38;;;2.95;;
78664;SDS011;67981;51.022;-2.870;2023-07-16T20:53:10;6.13;;;2.60;;
78664;SDS011;67981;51.022;-2.870;2023-07-16T20:55:36;5.65;;;1.90;;
78664;SDS011;67981;51.022;-2.870;2023-07-16T20:58:02;8.68;;;2.20;;
78664;SDS011;67981;51.022;-2.870;2023-07-16T21:00:28;7.20;;;2.42;;
78664;SDS011;67981;51.022;-2.870;2023-07-16T21:03:02;5.00;;;2.05;;
78664;SDS011;67981;51.022;-2.870;2023-07-16T21:05:29;5.78;;;2.25;;
78664;SDS011;67981;51.022;-2.870;2023-07-16T21:07:56;6.20;;;2.20;;
78664;SDS011;67981;51.022;-2.870;2023-07-16T21:10:21;4.38;;;1.73;;
78664;SDS011;67981;51.022;-2.870;2023-07-16T21:12:54;4.82;;;2.78;;
78664;SDS011;67981;51.022;-2.870;2023-07-16T21:15:21;5.70;;;2.35;;
78664;SDS011;67981;51.022;-2.870;2023-07-16T21:17:48;4.18;;;2.08;;
78664;SDS011;67981;51.022;-2.870;2023-07-16T21:20:13;4.53;;;1.98;;
78664;SDS011;67981;51.022;-2.870;2023-07-16T21:22:39;6.22;;;1.90;;
78664;SDS011;67981;51.022;-2.870;2023-07-16T21:25:08;6.82;;;1.90;;
78664;SDS011;67981;51.022;-2.870;2023-07-16T21:27:41;6.50;;;1.77;;
78664;SDS011;67981;51.022;-2.870;2023-07-16T21:30:11;4.13;;;1.95;;
78664;SDS011;67981;51.022;-2.870;2023-07-16T21:32:36;3.45;;;1.65;;
78664;SDS011;67981;51.022;-2.870;2023-07-16T21:35:05;4.20;;;2.08;;
78664;SDS011;67981;51.022;-2.870;2023-07-16T21:37:42;6.43;;;2.30;;
78664;SDS011;67981;51.022;-2.870;2023-07-16T21:40:08;4.03;;;1.90;;
78664;SDS011;67981;51.022;-2.870;2023-07-16T21:42:33;4.68;;;2.35;;
78664;SDS011;67981;51.022;-2.870;2023-07-16T21:44:59;5.20;;;1.90;;
78664;SDS011;67981;51.022;-2.870;2023-07-16T21:47:27;7.88;;;2.40;;
78664;SDS011;67981;51.022;-2.870;2023-07-16T21:49:52;3.92;;;2.10;;
78664;SDS011;67981;51.022;-2.870;2023-07-16T21:52:18;5.70;;;2.20;;
78664;SDS011;67981;51.022;-2.870;2023-07-16T21:54:43;6.68;;;2.60;;
78664;SDS011;67981;51.022;-2.870;2023-07-16T21:57:10;6.35;;;2.60;;
78664;SDS011;67981;51.022;-2.870;2023-07-16T21:59:35;8.65;;;2.35;;
78664;SDS011;67981;51.022;-2.870;2023-07-16T22:02:01;5.53;;;2.17;;
78664;SDS011;67981;51.022;-2.870;2023-07-16T22:04:27;5.70;;;2.30;;
78664;SDS011;67981;51.022;-2.870;2023-07-16T22:06:53;4.78;;;1.92;;
78664;SDS011;67981;51.022;-2.870;2023-07-16T22:09:19;6.03;;;2.45;;
78664;SDS011;67981;51.022;-2.870;2023-07-16T22:11:45;5.50;;;2.22;;
78664;SDS011;67981;51.022;-2.870;2023-07-16T22:14:10;5.22;;;2.38;;
78664;SDS011;67981;51.022;-2.870;2023-07-16T22:16:36;5.15;;;3.22;;
78664;SDS011;67981;51.022;-2.870;2023-07-16T22:19:02;6.70;;;3.15;;
78664;SDS011;67981;51.022;-2.870;2023-07-16T22:21:33;9.48;;;4.07;;
78664;SDS011;67981;51.022;-2.870;2023-07-16T22:23:59;7.45;;;3.80;;
78664;SDS011;67981;51.022;-2.870;2023-07-16T22:26:25;6.63;;;3.70;;
78664;SDS011;67981;51.022;-2.870;2023-07-16T22:28:51;5.57;;;2.90;;
78664;SDS011;67981;51.022;-2.870;2023-07-16T22:31:17;7.15;;;3.35;;
78664;SDS011;67981;51.022;-2.870;2023-07-16T22:33:42;6.10;;;3.00;;
78664;SDS011;67981;51.022;-2.870;2023-07-16T22:36:08;7.60;;;3.80;;
78664;SDS011;67981;51.022;-2.870;2023-07-16T22:38:34;6.13;;;3.15;;
78664;SDS011;67981;51.022;-2.870;2023-07-16T22:40:59;9.45;;;3.65;;
78664;SDS011;67981;51.022;-2.870;2023-07-16T22:43:25;6.40;;;3.00;;
78664;SDS011;67981;51.022;-2.870;2023-07-16T22:45:50;6.70;;;3.28;;
78664;SDS011;67981;51.022;-2.870;2023-07-16T22:48:15;9.80;;;3.07;;
78664;SDS011;67981;51.022;-2.870;2023-07-16T22:50:42;8.23;;;3.37;;
78664;SDS011;67981;51.022;-2.870;2023-07-16T22:53:11;7.13;;;3.17;;
78664;SDS011;67981;51.022;-2.870;2023-07-16T22:55:37;5.18;;;2.80;;
78664;SDS011;67981;51.022;-2.870;2023-07-16T22:58:03;7.63;;;3.75;;
78664;SDS011;67981;51.022;-2.870;2023-07-16T23:00:29;6.72;;;3.25;;
78664;SDS011;67981;51.022;-2.870;2023-07-16T23:02:55;7.07;;;3.00;;
78664;SDS011;67981;51.022;-2.870;2023-07-16T23:05:22;7.05;;;3.50;;
78664;SDS011;67981;51.022;-2.870;2023-07-16T23:07:48;6.85;;;3.00;;
78664;SDS011;67981;51.022;-2.870;2023-07-16T23:10:13;6.80;;;3.25;;
78664;SDS011;67981;51.022;-2.870;2023-07-16T23:12:39;4.78;;;2.65;;
78664;SDS011;67981;51.022;-2.870;2023-07-16T23:15:04;8.32;;;3.15;;
78664;SDS011;67981;51.022;-2.870;2023-07-16T23:17:30;6.40;;;3.65;;
78664;SDS011;67981;51.022;-2.870;2023-07-16T23:19:56;5.10;;;2.95;;
78664;SDS011;67981;51.022;-2.870;2023-07-16T23:22:22;7.45;;;3.35;;
78664;SDS011;67981;51.022;-2.870;2023-07-16T23:24:50;9.93;;;3.22;;
78664;SDS011;67981;51.022;-2.870;2023-07-16T23:27:15;9.75;;;3.25;;
78664;SDS011;67981;51.022;-2.870;2023-07-16T23:29:40;6.88;;;3.95;;
78664;SDS011;67981;51.022;-2.870;2023-07-16T23:32:06;7.65;;;3.38;;
78664;SDS011;67981;51.022;-2.870;2023-07-16T23:34:33;5.78;;;3.63;;
78664;SDS011;67981;51.022;-2.870;2023-07-16T23:36:59;7.20;;;3.88;;
78664;SDS011;67981;51.022;-2.870;2023-07-16T23:39:24;7.32;;;3.92;;
78664;SDS011;67981;51.022;-2.870;2023-07-16T23:41:51;5.20;;;3.03;;
78664;SDS011;67981;51.022;-2.870;2023-07-16T23:44:17;7.93;;;3.63;;
78664;SDS011;67981;51.022;-2.870;2023-07-16T23:46:43;4.72;;;2.42;;
78664;SDS011;67981;51.022;-2.870;2023-07-16T23:49:08;9.85;;;3.63;;
78664;SDS011;67981;51.022;-2.870;2023-07-16T23:51:34;5.90;;;2.92;;
78664;SDS011;67981;51.022;-2.870;2023-07-16T23:53:59;6.10;;;3.27;;
78664;SDS011;67981;51.022;-2.870;2023-07-16T23:56:24;6.65;;;3.03;;
78664;SDS011;67981;51.022;-2.870;2023-07-16T23:58:50;6.93;;;3.22;;
